sensor_id;sensor_type;location;lat;lon;timestamp;P1;durP1;ratioP1;P2;durP2;ratioP2
74995;SDS011;63545;51.690;5.202;2022-11-15T00:00:03;60.33;;;21.97;;
74995;SDS011;63545;51.690;5.202;2022-11-15T00:02:28;50.77;;;22.63;;
74995;SDS011;63545;51.690;5.202;2022-11-15T00:04:54;58.87;;;21.57;;
74995;SDS011;63545;51.690;5.202;2022-11-15T00:07:19;55.67;;;22.27;;
74995;SDS011;63545;51.690;5.202;2022-11-15T00:09:44;56.10;;;22.17;;
74995;SDS011;63545;51.690;5.202;2022-11-15T00:12:10;58.60;;;22.40;;
74995;SDS011;63545;51.690;5.202;2022-11-15T00:14:35;58.63;;;22.87;;
74995;SDS011;63545;51.690;5.202;2022-11-15T00:17:00;56.23;;;21.80;;
74995;SDS011;63545;51.690;5.202;2022-11-15T00:19:25;56.00;;;22.17;;
74995;SDS011;63545;51.690;5.202;2022-11-15T00:21:51;54.63;;;22.00;;
74995;SDS011;63545;51.690;5.202;2022-11-15T00:24:16;52.90;;;23.37;;
74995;SDS011;63545;51.690;5.202;2022-11-15T00:26:41;51.87;;;22.70;;
74995;SDS011;63545;51.690;5.202;2022-11-15T00:29:07;53.93;;;22.60;;
74995;SDS011;63545;51.690;5.202;2022-11-15T00:31:32;56.17;;;22.13;;
74995;SDS011;63545;51.690;5.202;2022-11-15T00:33:57;58.43;;;23.20;;
74995;SDS011;63545;51.690;5.202;2022-11-15T00:36:23;46.87;;;22.30;;
74995;SDS011;63545;51.690;5.202;2022-11-15T00:38:48;57.07;;;24.03;;
74995;SDS011;63545;51.690;5.202;2022-11-15T00:41:14;55.73;;;22.60;;
74995;SDS011;63545;51.690;5.202;2022-11-15T00:43:39;56.63;;;24.27;;
74995;SDS011;63545;51.690;5.202;2022-11-15T00:46:05;53.70;;;23.25;;
74995;SDS011;63545;51.690;5.202;2022-11-15T00:48:33;52.57;;;22.93;;
74995;SDS011;63545;51.690;5.202;2022-11-15T00:50:58;54.40;;;23.30;;
74995;SDS011;63545;51.690;5.202;2022-11-15T00:53:23;49.97;;;23.20;;
74995;SDS011;63545;51.690;5.202;2022-11-15T00:55:49;50.10;;;22.43;;
74995;SDS011;63545;51.690;5.202;2022-11-15T00:58:14;48.27;;;21.17;;
74995;SDS011;63545;51.690;5.202;2022-11-15T01:00:39;46.37;;;21.87;;
74995;SDS011;63545;51.690;5.202;2022-11-15T01:03:05;47.50;;;22.50;;
74995;SDS011;63545;51.690;5.202;2022-11-15T01:05:30;48.87;;;21.73;;
74995;SDS011;63545;51.690;5.202;2022-11-15T01:07:55;47.90;;;21.83;;
74995;SDS011;63545;51.690;5.202;2022-11-15T01:10:21;43.83;;;21.48;;
74995;SDS011;63545;51.690;5.202;2022-11-15T01:12:47;45.22;;;20.90;;
74995;SDS011;63545;51.690;5.202;2022-11-15T01:15:13;36.00;;;19.73;;
74995;SDS011;63545;51.690;5.202;2022-11-15T01:17:38;40.73;;;20.00;;
74995;SDS011;63545;51.690;5.202;2022-11-15T01:20:04;44.37;;;21.83;;
74995;SDS011;63545;51.690;5.202;2022-11-15T01:22:29;41.70;;;21.48;;
74995;SDS011;63545;51.690;5.202;2022-11-15T01:24:55;44.17;;;20.80;;
74995;SDS011;63545;51.690;5.202;2022-11-15T01:27:20;42.57;;;19.80;;
74995;SDS011;63545;51.690;5.202;2022-11-15T01:29:45;47.80;;;21.27;;
74995;SDS011;63545;51.690;5.202;2022-11-15T01:32:11;40.67;;;20.03;;
74995;SDS011;63545;51.690;5.202;2022-11-15T01:34:36;40.27;;;19.90;;
74995;SDS011;63545;51.690;5.202;2022-11-15T01:37:01;40.77;;;20.87;;
74995;SDS011;63545;51.690;5.202;2022-11-15T01:39:27;39.50;;;20.33;;
74995;SDS011;63545;51.690;5.202;2022-11-15T01:41:52;41.30;;;21.70;;
74995;SDS011;63545;51.690;5.202;2022-11-15T01:46:55;45.25;;;21.45;;
74995;SDS011;63545;51.690;5.202;2022-11-15T01:49:21;41.83;;;21.17;;
74995;SDS011;63545;51.690;5.202;2022-11-15T01:51:47;43.40;;;21.67;;
74995;SDS011;63545;51.690;5.202;2022-11-15T01:54:14;46.00;;;22.17;;
74995;SDS011;63545;51.690;5.202;2022-11-15T01:56:43;39.72;;;21.55;;
74995;SDS011;63545;51.690;5.202;2022-11-15T01:59:11;40.42;;;21.27;;
74995;SDS011;63545;51.690;5.202;2022-11-15T02:01:36;42.43;;;22.10;;
74995;SDS011;63545;51.690;5.202;2022-11-15T02:04:07;39.97;;;21.73;;
74995;SDS011;63545;51.690;5.202;2022-11-15T02:06:36;39.93;;;21.60;;
74995;SDS011;63545;51.690;5.202;2022-11-15T02:09:03;42.60;;;21.55;;
74995;SDS011;63545;51.690;5.202;2022-11-15T02:11:28;37.70;;;21.40;;
74995;SDS011;63545;51.690;5.202;2022-11-15T02:13:54;38.60;;;21.57;;
74995;SDS011;63545;51.690;5.202;2022-11-15T02:16:34;38.75;;;22.23;;
74995;SDS011;63545;51.690;5.202;2022-11-15T02:22:04;46.22;;;22.35;;
74995;SDS011;63545;51.690;5.202;2022-11-15T02:35:29;38.13;;;21.27;;
74995;SDS011;63545;51.690;5.202;2022-11-15T02:38:07;41.10;;;22.40;;
74995;SDS011;63545;51.690;5.202;2022-11-15T02:40:59;44.08;;;21.48;;
74995;SDS011;63545;51.690;5.202;2022-11-15T02:49:15;40.95;;;20.55;;
74995;SDS011;63545;51.690;5.202;2022-11-15T02:51:41;42.35;;;21.38;;
74995;SDS011;63545;51.690;5.202;2022-11-15T02:54:12;46.83;;;23.63;;
74995;SDS011;63545;51.690;5.202;2022-11-15T02:56:39;42.05;;;22.83;;
74995;SDS011;63545;51.690;5.202;2022-11-15T03:07:16;43.53;;;21.45;;
74995;SDS011;63545;51.690;5.202;2022-11-15T03:10:03;43.53;;;22.08;;
74995;SDS011;63545;51.690;5.202;2022-11-15T03:12:36;41.75;;;21.58;;
74995;SDS011;63545;51.690;5.202;2022-11-15T03:15:11;40.97;;;20.77;;
74995;SDS011;63545;51.690;5.202;2022-11-15T03:18:02;40.13;;;20.98;;
74995;SDS011;63545;51.690;5.202;2022-11-15T03:20:30;37.38;;;19.30;;
74995;SDS011;63545;51.690;5.202;2022-11-15T03:22:57;36.22;;;19.33;;
74995;SDS011;63545;51.690;5.202;2022-11-15T03:25:26;37.67;;;21.23;;
74995;SDS011;63545;51.690;5.202;2022-11-15T03:27:53;36.43;;;19.43;;
74995;SDS011;63545;51.690;5.202;2022-11-15T03:30:20;38.40;;;21.08;;
74995;SDS011;63545;51.690;5.202;2022-11-15T03:32:47;37.03;;;20.63;;
74995;SDS011;63545;51.690;5.202;2022-11-15T03:35:17;36.42;;;19.73;;
74995;SDS011;63545;51.690;5.202;2022-11-15T03:37:49;34.38;;;20.45;;
74995;SDS011;63545;51.690;5.202;2022-11-15T03:40:20;41.47;;;20.33;;
74995;SDS011;63545;51.690;5.202;2022-11-15T03:42:48;37.05;;;19.98;;
74995;SDS011;63545;51.690;5.202;2022-11-15T03:45:26;35.10;;;19.60;;
74995;SDS011;63545;51.690;5.202;2022-11-15T03:48:01;39.33;;;21.05;;
74995;SDS011;63545;51.690;5.202;2022-11-15T03:50:30;33.90;;;19.63;;
74995;SDS011;63545;51.690;5.202;2022-11-15T03:52:55;36.37;;;19.73;;
74995;SDS011;63545;51.690;5.202;2022-11-15T03:55:21;39.85;;;19.60;;
74995;SDS011;63545;51.690;5.202;2022-11-15T03:57:47;30.33;;;18.77;;
74995;SDS011;63545;51.690;5.202;2022-11-15T04:00:16;34.50;;;19.42;;
74995;SDS011;63545;51.690;5.202;2022-11-15T04:02:42;36.80;;;19.38;;
74995;SDS011;63545;51.690;5.202;2022-11-15T04:05:07;37.03;;;19.37;;
74995;SDS011;63545;51.690;5.202;2022-11-15T04:07:32;35.20;;;19.93;;
74995;SDS011;63545;51.690;5.202;2022-11-15T04:09:58;37.70;;;19.10;;
74995;SDS011;63545;51.690;5.202;2022-11-15T04:12:31;37.80;;;20.10;;
74995;SDS011;63545;51.690;5.202;2022-11-15T04:15:18;34.97;;;19.15;;
74995;SDS011;63545;51.690;5.202;2022-11-15T04:17:47;34.13;;;18.90;;
74995;SDS011;63545;51.690;5.202;2022-11-15T04:20:18;35.08;;;20.58;;
74995;SDS011;63545;51.690;5.202;2022-11-15T04:23:15;35.70;;;20.80;;
74995;SDS011;63545;51.690;5.202;2022-11-15T04:26:01;40.13;;;20.15;;
74995;SDS011;63545;51.690;5.202;2022-11-15T04:28:29;36.95;;;20.35;;
74995;SDS011;63545;51.690;5.202;2022-11-15T04:30:54;35.90;;;20.67;;
74995;SDS011;63545;51.690;5.202;2022-11-15T04:33:19;34.70;;;19.87;;
74995;SDS011;63545;51.690;5.202;2022-11-15T04:35:45;38.37;;;20.70;;
74995;SDS011;63545;51.690;5.202;2022-11-15T04:38:30;38.58;;;20.42;;
74995;SDS011;63545;51.690;5.202;2022-11-15T04:40:55;38.70;;;20.10;;
74995;SDS011;63545;51.690;5.202;2022-11-15T04:43:21;36.43;;;21.20;;
74995;SDS011;63545;51.690;5.202;2022-11-15T04:45:47;38.43;;;20.40;;
74995;SDS011;63545;51.690;5.202;2022-11-15T04:48:12;38.30;;;21.80;;
74995;SDS011;63545;51.690;5.202;2022-11-15T04:50:38;42.13;;;21.60;;
74995;SDS011;63545;51.690;5.202;2022-11-15T04:53:03;35.67;;;21.10;;
74995;SDS011;63545;51.690;5.202;2022-11-15T04:55:28;39.10;;;20.27;;
74995;SDS011;63545;51.690;5.202;2022-11-15T04:57:57;42.50;;;22.15;;
74995;SDS011;63545;51.690;5.202;2022-11-15T05:00:26;41.97;;;21.60;;
74995;SDS011;63545;51.690;5.202;2022-11-15T05:02:52;40.35;;;20.85;;
74995;SDS011;63545;51.690;5.202;2022-11-15T05:05:38;36.35;;;20.90;;
74995;SDS011;63545;51.690;5.202;2022-11-15T05:08:03;38.80;;;21.27;;
74995;SDS011;63545;51.690;5.202;2022-11-15T05:10:29;37.43;;;20.63;;
74995;SDS011;63545;51.690;5.202;2022-11-15T05:12:55;44.00;;;21.63;;
74995;SDS011;63545;51.690;5.202;2022-11-15T05:15:20;37.03;;;19.53;;
74995;SDS011;63545;51.690;5.202;2022-11-15T05:17:45;41.47;;;21.40;;
74995;SDS011;63545;51.690;5.202;2022-11-15T05:20:11;39.73;;;21.13;;
74995;SDS011;63545;51.690;5.202;2022-11-15T05:22:36;45.07;;;20.53;;
74995;SDS011;63545;51.690;5.202;2022-11-15T05:25:02;39.83;;;20.63;;
74995;SDS011;63545;51.690;5.202;2022-11-15T05:27:28;39.60;;;19.45;;
74995;SDS011;63545;51.690;5.202;2022-11-15T05:29:53;36.63;;;19.63;;
74995;SDS011;63545;51.690;5.202;2022-11-15T05:32:19;38.33;;;19.70;;
74995;SDS011;63545;51.690;5.202;2022-11-15T05:34:44;38.33;;;19.47;;
74995;SDS011;63545;51.690;5.202;2022-11-15T05:37:10;35.13;;;18.67;;
74995;SDS011;63545;51.690;5.202;2022-11-15T05:39:35;33.80;;;18.57;;
74995;SDS011;63545;51.690;5.202;2022-11-15T05:42:02;34.17;;;19.07;;
74995;SDS011;63545;51.690;5.202;2022-11-15T05:44:31;39.38;;;18.83;;
74995;SDS011;63545;51.690;5.202;2022-11-15T05:46:57;36.83;;;18.37;;
74995;SDS011;63545;51.690;5.202;2022-11-15T05:49:23;35.58;;;17.35;;
74995;SDS011;63545;51.690;5.202;2022-11-15T05:51:50;35.55;;;18.10;;
74995;SDS011;63545;51.690;5.202;2022-11-15T05:54:16;31.83;;;17.53;;
74995;SDS011;63545;51.690;5.202;2022-11-15T05:56:42;32.78;;;17.58;;
74995;SDS011;63545;51.690;5.202;2022-11-15T05:59:08;33.70;;;18.07;;
74995;SDS011;63545;51.690;5.202;2022-11-15T06:01:34;33.15;;;17.35;;
74995;SDS011;63545;51.690;5.202;2022-11-15T06:03:59;33.53;;;17.13;;
74995;SDS011;63545;51.690;5.202;2022-11-15T06:06:26;30.70;;;17.20;;
74995;SDS011;63545;51.690;5.202;2022-11-15T06:08:52;34.55;;;17.23;;
74995;SDS011;63545;51.690;5.202;2022-11-15T06:11:18;26.50;;;15.70;;
74995;SDS011;63545;51.690;5.202;2022-11-15T06:13:43;31.25;;;16.80;;
74995;SDS011;63545;51.690;5.202;2022-11-15T06:16:08;30.90;;;16.23;;
74995;SDS011;63545;51.690;5.202;2022-11-15T06:18:34;28.03;;;16.17;;
74995;SDS011;63545;51.690;5.202;2022-11-15T06:20:59;32.13;;;17.43;;
74995;SDS011;63545;51.690;5.202;2022-11-15T06:23:25;30.52;;;16.27;;
74995;SDS011;63545;51.690;5.202;2022-11-15T06:25:50;31.70;;;17.47;;
74995;SDS011;63545;51.690;5.202;2022-11-15T06:28:16;30.57;;;17.30;;
74995;SDS011;63545;51.690;5.202;2022-11-15T06:30:41;33.03;;;16.97;;
74995;SDS011;63545;51.690;5.202;2022-11-15T06:33:06;32.03;;;16.40;;
74995;SDS011;63545;51.690;5.202;2022-11-15T06:35:34;29.42;;;15.75;;
74995;SDS011;63545;51.690;5.202;2022-11-15T06:38:04;32.28;;;16.40;;
74995;SDS011;63545;51.690;5.202;2022-11-15T06:40:32;32.30;;;16.60;;
74995;SDS011;63545;51.690;5.202;2022-11-15T06:43:01;29.95;;;15.55;;
74995;SDS011;63545;51.690;5.202;2022-11-15T06:45:27;27.33;;;14.93;;
74995;SDS011;63545;51.690;5.202;2022-11-15T06:47:52;33.47;;;16.30;;
74995;SDS011;63545;51.690;5.202;2022-11-15T06:50:18;30.87;;;16.03;;
74995;SDS011;63545;51.690;5.202;2022-11-15T06:52:44;32.57;;;15.33;;
74995;SDS011;63545;51.690;5.202;2022-11-15T06:55:09;33.03;;;16.45;;
74995;SDS011;63545;51.690;5.202;2022-11-15T06:57:35;30.63;;;15.73;;
74995;SDS011;63545;51.690;5.202;2022-11-15T07:00:01;28.47;;;15.17;;
74995;SDS011;63545;51.690;5.202;2022-11-15T07:02:28;27.25;;;14.90;;
74995;SDS011;63545;51.690;5.202;2022-11-15T07:04:54;32.33;;;15.90;;
74995;SDS011;63545;51.690;5.202;2022-11-15T07:07:19;29.33;;;15.43;;
74995;SDS011;63545;51.690;5.202;2022-11-15T07:09:44;32.75;;;15.23;;
74995;SDS011;63545;51.690;5.202;2022-11-15T07:12:10;28.50;;;15.87;;
74995;SDS011;63545;51.690;5.202;2022-11-15T07:14:35;26.30;;;15.23;;
74995;SDS011;63545;51.690;5.202;2022-11-15T07:17:02;26.83;;;15.33;;
74995;SDS011;63545;51.690;5.202;2022-11-15T07:19:28;29.65;;;15.25;;
74995;SDS011;63545;51.690;5.202;2022-11-15T07:21:54;29.33;;;15.70;;
74995;SDS011;63545;51.690;5.202;2022-11-15T07:24:19;31.23;;;15.47;;
74995;SDS011;63545;51.690;5.202;2022-11-15T07:26:44;28.17;;;14.87;;
74995;SDS011;63545;51.690;5.202;2022-11-15T07:29:10;29.73;;;15.13;;
74995;SDS011;63545;51.690;5.202;2022-11-15T07:31:35;27.57;;;15.13;;
74995;SDS011;63545;51.690;5.202;2022-11-15T07:34:00;35.88;;;16.05;;
74995;SDS011;63545;51.690;5.202;2022-11-15T07:36:26;29.83;;;15.03;;
74995;SDS011;63545;51.690;5.202;2022-11-15T07:38:51;28.73;;;14.40;;
74995;SDS011;63545;51.690;5.202;2022-11-15T07:41:16;26.07;;;14.83;;
74995;SDS011;63545;51.690;5.202;2022-11-15T07:43:42;31.80;;;15.43;;
74995;SDS011;63545;51.690;5.202;2022-11-15T07:46:08;26.83;;;14.30;;
74995;SDS011;63545;51.690;5.202;2022-11-15T07:48:37;31.20;;;16.85;;
74995;SDS011;63545;51.690;5.202;2022-11-15T07:51:05;30.13;;;15.25;;
74995;SDS011;63545;51.690;5.202;2022-11-15T07:53:30;29.87;;;14.83;;
74995;SDS011;63545;51.690;5.202;2022-11-15T07:55:56;26.58;;;15.75;;
74995;SDS011;63545;51.690;5.202;2022-11-15T07:58:21;33.23;;;16.77;;
74995;SDS011;63545;51.690;5.202;2022-11-15T08:00:46;28.20;;;16.30;;
74995;SDS011;63545;51.690;5.202;2022-11-15T08:03:13;29.63;;;16.37;;
74995;SDS011;63545;51.690;5.202;2022-11-15T08:05:40;31.60;;;16.75;;
74995;SDS011;63545;51.690;5.202;2022-11-15T08:08:06;32.35;;;17.35;;
74995;SDS011;63545;51.690;5.202;2022-11-15T08:10:33;32.97;;;15.97;;
74995;SDS011;63545;51.690;5.202;2022-11-15T08:13:09;28.30;;;16.10;;
74995;SDS011;63545;51.690;5.202;2022-11-15T08:15:35;26.05;;;15.13;;
74995;SDS011;63545;51.690;5.202;2022-11-15T08:18:05;28.53;;;14.57;;
74995;SDS011;63545;51.690;5.202;2022-11-15T08:20:33;28.45;;;17.00;;
74995;SDS011;63545;51.690;5.202;2022-11-15T08:23:01;27.73;;;15.52;;
74995;SDS011;63545;51.690;5.202;2022-11-15T08:25:28;29.05;;;15.20;;
74995;SDS011;63545;51.690;5.202;2022-11-15T08:27:56;26.00;;;14.27;;
74995;SDS011;63545;51.690;5.202;2022-11-15T08:30:22;25.88;;;13.70;;
74995;SDS011;63545;51.690;5.202;2022-11-15T08:32:49;25.58;;;13.85;;
74995;SDS011;63545;51.690;5.202;2022-11-15T08:35:15;23.85;;;13.90;;
74995;SDS011;63545;51.690;5.202;2022-11-15T08:37:40;24.20;;;13.50;;
74995;SDS011;63545;51.690;5.202;2022-11-15T08:40:06;25.00;;;11.87;;
74995;SDS011;63545;51.690;5.202;2022-11-15T08:42:32;20.80;;;11.95;;
74995;SDS011;63545;51.690;5.202;2022-11-15T08:44:57;24.40;;;12.27;;
74995;SDS011;63545;51.690;5.202;2022-11-15T08:47:23;21.07;;;12.03;;
74995;SDS011;63545;51.690;5.202;2022-11-15T08:49:48;20.70;;;11.13;;
74995;SDS011;63545;51.690;5.202;2022-11-15T08:52:14;21.37;;;11.57;;
74995;SDS011;63545;51.690;5.202;2022-11-15T08:54:39;20.25;;;11.63;;
74995;SDS011;63545;51.690;5.202;2022-11-15T08:57:05;18.07;;;10.57;;
74995;SDS011;63545;51.690;5.202;2022-11-15T08:59:31;21.55;;;11.48;;
74995;SDS011;63545;51.690;5.202;2022-11-15T09:01:56;21.57;;;10.90;;
74995;SDS011;63545;51.690;5.202;2022-11-15T09:04:21;20.13;;;11.10;;
74995;SDS011;63545;51.690;5.202;2022-11-15T09:06:47;19.87;;;12.30;;
74995;SDS011;63545;51.690;5.202;2022-11-15T09:09:12;23.33;;;12.33;;
74995;SDS011;63545;51.690;5.202;2022-11-15T09:11:37;20.57;;;12.50;;
74995;SDS011;63545;51.690;5.202;2022-11-15T09:14:03;23.75;;;12.25;;
74995;SDS011;63545;51.690;5.202;2022-11-15T09:16:29;20.30;;;12.07;;
74995;SDS011;63545;51.690;5.202;2022-11-15T09:18:55;21.07;;;12.60;;
74995;SDS011;63545;51.690;5.202;2022-11-15T09:21:21;22.05;;;11.65;;
74995;SDS011;63545;51.690;5.202;2022-11-15T09:23:46;20.13;;;11.87;;
74995;SDS011;63545;51.690;5.202;2022-11-15T09:26:12;19.17;;;11.50;;
74995;SDS011;63545;51.690;5.202;2022-11-15T09:28:37;16.65;;;10.45;;
74995;SDS011;63545;51.690;5.202;2022-11-15T09:31:06;20.33;;;10.57;;
74995;SDS011;63545;51.690;5.202;2022-11-15T09:33:32;15.75;;;8.93;;
74995;SDS011;63545;51.690;5.202;2022-11-15T09:36:04;14.53;;;8.63;;
74995;SDS011;63545;51.690;5.202;2022-11-15T09:38:31;12.70;;;8.00;;
74995;SDS011;63545;51.690;5.202;2022-11-15T09:43:46;10.00;;;6.60;;
74995;SDS011;63545;51.690;5.202;2022-11-15T09:49:17;8.82;;;5.47;;
74995;SDS011;63545;51.690;5.202;2022-11-15T09:51:44;11.90;;;6.07;;
74995;SDS011;63545;51.690;5.202;2022-11-15T09:54:30;10.27;;;4.82;;
74995;SDS011;63545;51.690;5.202;2022-11-15T09:57:19;8.07;;;4.63;;
74995;SDS011;63545;51.690;5.202;2022-11-15T10:05:11;7.90;;;3.42;;
74995;SDS011;63545;51.690;5.202;2022-11-15T10:10:44;6.38;;;3.63;;
74995;SDS011;63545;51.690;5.202;2022-11-15T10:13:33;5.60;;;2.80;;
74995;SDS011;63545;51.690;5.202;2022-11-15T10:16:08;7.07;;;2.70;;
74995;SDS011;63545;51.690;5.202;2022-11-15T10:21:24;6.65;;;2.97;;
74995;SDS011;63545;51.690;5.202;2022-11-15T10:23:55;6.45;;;2.90;;
74995;SDS011;63545;51.690;5.202;2022-11-15T10:26:20;5.13;;;2.77;;
74995;SDS011;63545;51.690;5.202;2022-11-15T10:28:46;6.97;;;2.70;;
74995;SDS011;63545;51.690;5.202;2022-11-15T10:31:21;7.57;;;2.80;;
74995;SDS011;63545;51.690;5.202;2022-11-15T10:33:48;8.38;;;2.92;;
74995;SDS011;63545;51.690;5.202;2022-11-15T10:38:53;5.90;;;2.75;;
74995;SDS011;63545;51.690;5.202;2022-11-15T10:41:20;5.22;;;2.60;;
74995;SDS011;63545;51.690;5.202;2022-11-15T10:44:07;5.30;;;2.40;;
74995;SDS011;63545;51.690;5.202;2022-11-15T10:46:38;6.78;;;2.42;;
74995;SDS011;63545;51.690;5.202;2022-11-15T10:49:18;9.88;;;2.75;;
74995;SDS011;63545;51.690;5.202;2022-11-15T10:51:48;5.80;;;2.33;;
74995;SDS011;63545;51.690;5.202;2022-11-15T10:54:21;8.10;;;2.40;;
74995;SDS011;63545;51.690;5.202;2022-11-15T10:56:52;7.10;;;2.07;;
74995;SDS011;63545;51.690;5.202;2022-11-15T10:59:23;7.88;;;2.00;;
74995;SDS011;63545;51.690;5.202;2022-11-15T11:01:51;4.90;;;1.90;;
74995;SDS011;63545;51.690;5.202;2022-11-15T11:04:17;4.97;;;1.97;;
74995;SDS011;63545;51.690;5.202;2022-11-15T11:07:19;6.40;;;1.95;;
74995;SDS011;63545;51.690;5.202;2022-11-15T11:09:44;6.57;;;2.38;;
74995;SDS011;63545;51.690;5.202;2022-11-15T11:12:10;5.57;;;2.60;;
74995;SDS011;63545;51.690;5.202;2022-11-15T11:14:37;8.93;;;2.92;;
74995;SDS011;63545;51.690;5.202;2022-11-15T11:17:14;5.77;;;1.87;;
74995;SDS011;63545;51.690;5.202;2022-11-15T11:23:04;8.25;;;1.90;;
74995;SDS011;63545;51.690;5.202;2022-11-15T11:33:33;8.32;;;1.30;;
74995;SDS011;63545;51.690;5.202;2022-11-15T11:36:05;9.38;;;3.33;;
74995;SDS011;63545;51.690;5.202;2022-11-15T11:39:11;5.55;;;1.67;;
74995;SDS011;63545;51.690;5.202;2022-11-15T11:44:53;4.77;;;1.30;;
74995;SDS011;63545;51.690;5.202;2022-11-15T11:47:24;7.47;;;1.58;;
74995;SDS011;63545;51.690;5.202;2022-11-15T11:49:58;5.05;;;1.55;;
74995;SDS011;63545;51.690;5.202;2022-11-15T12:02:29;4.88;;;1.58;;
74995;SDS011;63545;51.690;5.202;2022-11-15T12:05:01;6.57;;;1.60;;
74995;SDS011;63545;51.690;5.202;2022-11-15T12:07:31;7.03;;;1.90;;
74995;SDS011;63545;51.690;5.202;2022-11-15T12:13:00;7.82;;;1.67;;
74995;SDS011;63545;51.690;5.202;2022-11-15T12:15:49;5.00;;;1.75;;
74995;SDS011;63545;51.690;5.202;2022-11-15T12:18:18;6.00;;;1.90;;
74995;SDS011;63545;51.690;5.202;2022-11-15T12:20:50;6.50;;;1.60;;
74995;SDS011;63545;51.690;5.202;2022-11-15T12:23:21;5.22;;;1.70;;
74995;SDS011;63545;51.690;5.202;2022-11-15T12:26:00;7.20;;;1.90;;
74995;SDS011;63545;51.690;5.202;2022-11-15T12:28:34;5.57;;;1.50;;
74995;SDS011;63545;51.690;5.202;2022-11-15T12:33:50;5.72;;;1.60;;
74995;SDS011;63545;51.690;5.202;2022-11-15T12:41:24;5.20;;;1.67;;
74995;SDS011;63545;51.690;5.202;2022-11-15T12:43:54;5.93;;;1.47;;
74995;SDS011;63545;51.690;5.202;2022-11-15T12:48:47;7.20;;;1.30;;
74995;SDS011;63545;51.690;5.202;2022-11-15T12:51:13;4.63;;;1.27;;
74995;SDS011;63545;51.690;5.202;2022-11-15T12:53:38;5.60;;;1.40;;
74995;SDS011;63545;51.690;5.202;2022-11-15T13:06:44;3.77;;;1.40;;
74995;SDS011;63545;51.690;5.202;2022-11-15T13:11:55;7.38;;;2.05;;
74995;SDS011;63545;51.690;5.202;2022-11-15T13:17:02;8.25;;;1.60;;
74995;SDS011;63545;51.690;5.202;2022-11-15T13:19:43;5.83;;;1.80;;
74995;SDS011;63545;51.690;5.202;2022-11-15T13:22:10;4.65;;;1.20;;
74995;SDS011;63545;51.690;5.202;2022-11-15T13:24:55;5.80;;;1.42;;
74995;SDS011;63545;51.690;5.202;2022-11-15T13:27:20;5.88;;;1.50;;
74995;SDS011;63545;51.690;5.202;2022-11-15T13:29:47;5.50;;;1.10;;
74995;SDS011;63545;51.690;5.202;2022-11-15T13:32:12;4.10;;;1.40;;
74995;SDS011;63545;51.690;5.202;2022-11-15T13:34:39;4.18;;;1.77;;
74995;SDS011;63545;51.690;5.202;2022-11-15T13:37:32;5.27;;;1.60;;
74995;SDS011;63545;51.690;5.202;2022-11-15T13:40:44;4.63;;;1.30;;
74995;SDS011;63545;51.690;5.202;2022-11-15T13:42:49;5.07;;;1.58;;
74995;SDS011;63545;51.690;5.202;2022-11-15T13:45:16;5.10;;;1.55;;
74995;SDS011;63545;51.690;5.202;2022-11-15T13:47:43;5.27;;;1.33;;
74995;SDS011;63545;51.690;5.202;2022-11-15T13:50:12;6.47;;;1.60;;
74995;SDS011;63545;51.690;5.202;2022-11-15T13:52:38;6.07;;;1.50;;
74995;SDS011;63545;51.690;5.202;2022-11-15T13:55:15;4.93;;;1.60;;
74995;SDS011;63545;51.690;5.202;2022-11-15T13:58:02;3.63;;;1.20;;
74995;SDS011;63545;51.690;5.202;2022-11-15T14:00:33;7.88;;;1.60;;
74995;SDS011;63545;51.690;5.202;2022-11-15T14:05:43;4.63;;;1.80;;
74995;SDS011;63545;51.690;5.202;2022-11-15T14:10:45;3.33;;;1.42;;
74995;SDS011;63545;51.690;5.202;2022-11-15T14:13:29;7.00;;;1.73;;
74995;SDS011;63545;51.690;5.202;2022-11-15T14:16:41;7.47;;;1.80;;
74995;SDS011;63545;51.690;5.202;2022-11-15T14:18:49;8.55;;;2.17;;
74995;SDS011;63545;51.690;5.202;2022-11-15T14:21:16;6.40;;;1.70;;
74995;SDS011;63545;51.690;5.202;2022-11-15T14:23:42;3.88;;;1.20;;
74995;SDS011;63545;51.690;5.202;2022-11-15T14:26:11;8.10;;;1.70;;
74995;SDS011;63545;51.690;5.202;2022-11-15T14:28:51;6.78;;;1.63;;
74995;SDS011;63545;51.690;5.202;2022-11-15T14:31:16;4.30;;;1.40;;
74995;SDS011;63545;51.690;5.202;2022-11-15T14:33:42;7.03;;;1.60;;
74995;SDS011;63545;51.690;5.202;2022-11-15T14:36:14;6.20;;;1.53;;
74995;SDS011;63545;51.690;5.202;2022-11-15T14:38:41;3.80;;;1.80;;
74995;SDS011;63545;51.690;5.202;2022-11-15T14:41:25;9.75;;;1.80;;
74995;SDS011;63545;51.690;5.202;2022-11-15T14:43:51;3.43;;;1.97;;
74995;SDS011;63545;51.690;5.202;2022-11-15T14:46:19;7.78;;;2.08;;
74995;SDS011;63545;51.690;5.202;2022-11-15T14:48:44;4.40;;;1.55;;
74995;SDS011;63545;51.690;5.202;2022-11-15T14:51:13;6.83;;;1.63;;
74995;SDS011;63545;51.690;5.202;2022-11-15T14:53:40;7.10;;;1.77;;
74995;SDS011;63545;51.690;5.202;2022-11-15T14:56:06;6.65;;;1.67;;
74995;SDS011;63545;51.690;5.202;2022-11-15T14:58:32;5.38;;;1.67;;
74995;SDS011;63545;51.690;5.202;2022-11-15T15:00:57;9.33;;;1.90;;
74995;SDS011;63545;51.690;5.202;2022-11-15T15:03:23;6.40;;;1.60;;
74995;SDS011;63545;51.690;5.202;2022-11-15T15:05:48;6.77;;;1.83;;
74995;SDS011;63545;51.690;5.202;2022-11-15T15:08:14;4.43;;;1.60;;
74995;SDS011;63545;51.690;5.202;2022-11-15T15:10:43;6.78;;;1.60;;
74995;SDS011;63545;51.690;5.202;2022-11-15T15:13:18;9.07;;;3.07;;
74995;SDS011;63545;51.690;5.202;2022-11-15T15:15:45;7.97;;;2.95;;
74995;SDS011;63545;51.690;5.202;2022-11-15T15:18:11;7.07;;;1.95;;
74995;SDS011;63545;51.690;5.202;2022-11-15T15:20:37;8.00;;;2.20;;
74995;SDS011;63545;51.690;5.202;2022-11-15T15:23:04;6.22;;;2.33;;
74995;SDS011;63545;51.690;5.202;2022-11-15T15:25:30;6.97;;;1.63;;
74995;SDS011;63545;51.690;5.202;2022-11-15T15:27:57;6.60;;;2.20;;
74995;SDS011;63545;51.690;5.202;2022-11-15T15:30:23;6.13;;;1.73;;
74995;SDS011;63545;51.690;5.202;2022-11-15T15:32:49;6.72;;;1.73;;
74995;SDS011;63545;51.690;5.202;2022-11-15T15:35:15;7.33;;;1.77;;
74995;SDS011;63545;51.690;5.202;2022-11-15T15:37:41;5.22;;;1.88;;
74995;SDS011;63545;51.690;5.202;2022-11-15T15:40:15;5.90;;;2.08;;
74995;SDS011;63545;51.690;5.202;2022-11-15T15:42:42;7.93;;;2.28;;
74995;SDS011;63545;51.690;5.202;2022-11-15T15:45:08;5.30;;;2.30;;
74995;SDS011;63545;51.690;5.202;2022-11-15T15:47:34;5.30;;;2.20;;
74995;SDS011;63545;51.690;5.202;2022-11-15T15:49:59;8.13;;;2.30;;
74995;SDS011;63545;51.690;5.202;2022-11-15T15:52:24;6.07;;;2.13;;
74995;SDS011;63545;51.690;5.202;2022-11-15T15:54:50;5.97;;;2.43;;
74995;SDS011;63545;51.690;5.202;2022-11-15T15:57:15;6.17;;;2.40;;
74995;SDS011;63545;51.690;5.202;2022-11-15T15:59:40;6.77;;;2.30;;
74995;SDS011;63545;51.690;5.202;2022-11-15T16:02:08;7.10;;;2.22;;
74995;SDS011;63545;51.690;5.202;2022-11-15T16:04:36;6.70;;;2.40;;
74995;SDS011;63545;51.690;5.202;2022-11-15T16:07:01;6.97;;;1.90;;
74995;SDS011;63545;51.690;5.202;2022-11-15T16:09:28;6.57;;;2.28;;
74995;SDS011;63545;51.690;5.202;2022-11-15T16:12:12;5.93;;;1.90;;
74995;SDS011;63545;51.690;5.202;2022-11-15T16:14:40;3.70;;;2.00;;
74995;SDS011;63545;51.690;5.202;2022-11-15T16:17:05;6.03;;;2.20;;
74995;SDS011;63545;51.690;5.202;2022-11-15T16:19:31;7.43;;;2.50;;
74995;SDS011;63545;51.690;5.202;2022-11-15T16:21:56;6.07;;;2.23;;
74995;SDS011;63545;51.690;5.202;2022-11-15T16:24:22;10.00;;;2.60;;
74995;SDS011;63545;51.690;5.202;2022-11-15T16:26:47;8.48;;;2.60;;